createdAt,value
2022-09-12T00:01:20.095Z,0.90
2022-09-12T00:03:47.213Z,1.10
2022-09-12T00:06:23.485Z,1.00
2022-09-12T00:08:51.579Z,0.93
2022-09-12T00:11:18.149Z,1.00
2022-09-12T00:13:44.734Z,0.90
2022-09-12T00:16:20.643Z,1.00
2022-09-12T00:18:48.047Z,1.08
2022-09-12T00:21:15.927Z,1.10
2022-09-12T00:23:42.464Z,1.08
2022-09-12T00:26:09.319Z,1.00
2022-09-12T00:28:37.471Z,1.20
2022-09-12T00:31:11.340Z,1.10
2022-09-12T00:33:38.194Z,1.20
2022-09-12T00:36:08.161Z,1.08
2022-09-12T00:38:38.435Z,1.10
2022-09-12T00:41:05.879Z,1.23
2022-09-12T00:43:36.306Z,1.30
2022-09-12T00:46:10.503Z,1.10
2022-09-12T00:48:45.179Z,1.20
2022-09-12T00:51:12.486Z,1.00
2022-09-12T00:53:41.986Z,1.25
2022-09-12T00:56:08.934Z,1.10
2022-09-12T00:58:47.733Z,1.10
2022-09-12T01:01:14.492Z,1.10
2022-09-12T01:03:41.673Z,1.10
2022-09-12T01:06:27.091Z,1.20
2022-09-12T01:08:54.978Z,1.20
2022-09-12T01:11:22.556Z,1.20
2022-09-12T01:13:50.647Z,1.10
2022-09-12T01:16:17.488Z,1.10
2022-09-12T01:19:09.150Z,1.20
2022-09-12T01:21:44.794Z,1.10
2022-09-12T01:24:38.096Z,1.10
2022-09-12T01:27:28.854Z,1.20
2022-09-12T01:30:05.118Z,1.02
2022-09-12T01:32:53.855Z,1.10
2022-09-12T01:35:35.816Z,1.10
2022-09-12T01:38:29.540Z,1.23
2022-09-12T01:41:19.462Z,1.20
2022-09-12T01:44:03.817Z,1.20
2022-09-12T01:46:33.896Z,1.50
2022-09-12T01:49:07.001Z,1.20
2022-09-12T01:51:42.498Z,1.30
2022-09-12T01:54:15.948Z,1.27
2022-09-12T01:56:45.886Z,1.20
2022-09-12T01:59:35.428Z,1.30
2022-09-12T02:02:29.079Z,1.45
2022-09-12T02:05:06.924Z,1.40
2022-09-12T02:07:40.396Z,1.40
2022-09-12T02:10:14.093Z,1.35
2022-09-12T02:12:49.954Z,1.45
2022-09-12T02:15:21.000Z,1.40
2022-09-12T02:17:50.617Z,1.30
2022-09-12T02:20:44.371Z,1.50
2022-09-12T02:23:15.726Z,1.40
2022-09-12T02:25:45.857Z,1.58
2022-09-12T02:31:01.272Z,1.60
2022-09-12T02:33:35.323Z,1.45
2022-09-12T02:36:27.996Z,1.55
2022-09-12T02:38:55.449Z,1.50
2022-09-12T02:41:22.658Z,1.48
2022-09-12T02:43:51.572Z,1.52
2022-09-12T02:46:26.781Z,1.50
2022-09-12T02:48:54.483Z,1.50
2022-09-12T02:51:23.857Z,1.65
2022-09-12T02:53:50.964Z,1.60
2022-09-12T02:56:24.901Z,1.40
2022-09-12T02:58:52.790Z,1.90
2022-09-12T03:01:41.247Z,1.58
2022-09-12T03:04:33.031Z,1.52
2022-09-12T03:07:18.201Z,1.60
2022-09-12T03:09:47.540Z,1.50
2022-09-12T03:12:31.478Z,1.55
2022-09-12T03:15:04.112Z,1.60
2022-09-12T03:17:39.893Z,1.60
2022-09-12T03:20:12.723Z,1.50
2022-09-12T03:22:41.993Z,1.60
2022-09-12T03:25:16.135Z,1.43
2022-09-12T03:28:09.623Z,1.48
2022-09-12T03:30:41.059Z,1.40
2022-09-12T03:33:12.451Z,1.20
2022-09-12T03:35:39.148Z,1.10
2022-09-12T03:38:07.971Z,1.00
2022-09-12T03:40:38.632Z,0.93
2022-09-12T03:43:07.498Z,1.00
2022-09-12T03:45:35.400Z,1.00
2022-09-12T03:48:02.124Z,1.00
2022-09-12T03:50:28.738Z,0.90
2022-09-12T03:52:56.256Z,1.17
2022-09-12T03:55:22.957Z,1.10
2022-09-12T03:57:53.039Z,1.10
2022-09-12T04:00:20.048Z,1.13
2022-09-12T04:02:46.664Z,1.13
2022-09-12T04:05:13.314Z,1.20
2022-09-12T04:07:39.977Z,2.10
2022-09-12T04:10:07.155Z,1.42
2022-09-12T04:12:35.500Z,1.70
2022-09-12T04:15:02.239Z,1.80
2022-09-12T04:17:28.835Z,2.10
2022-09-12T04:19:55.326Z,2.30
2022-09-12T04:22:21.930Z,1.60
2022-09-12T04:24:48.427Z,1.60
2022-09-12T04:27:14.910Z,1.60
2022-09-12T04:29:41.474Z,1.90
2022-09-12T04:32:07.923Z,1.75
2022-09-12T04:34:34.374Z,1.60
2022-09-12T04:37:00.863Z,1.60
2022-09-12T04:39:27.486Z,1.70
2022-09-12T04:41:54.339Z,1.90
2022-09-12T04:44:20.900Z,1.65
2022-09-12T04:46:47.780Z,1.98
2022-09-12T04:49:19.408Z,1.73
2022-09-12T04:51:46.708Z,1.88
2022-09-12T04:54:19.124Z,1.88
2022-09-12T04:56:50.583Z,2.03
2022-09-12T04:59:19.779Z,1.80
2022-09-12T05:01:46.631Z,2.28
2022-09-12T05:04:13.462Z,1.98
2022-09-12T05:06:40.892Z,2.10
2022-09-12T05:09:11.228Z,2.00
2022-09-12T05:12:03.746Z,2.20
2022-09-12T05:14:26.763Z,1.95
2022-09-12T05:16:53.365Z,2.10
2022-09-12T05:19:20.033Z,2.25
2022-09-12T05:21:46.566Z,1.98
2022-09-12T05:24:13.114Z,2.05
2022-09-12T05:26:39.816Z,2.17
2022-09-12T05:29:07.136Z,2.53
2022-09-12T05:31:34.040Z,1.75
2022-09-12T05:34:00.715Z,1.70
2022-09-12T05:36:32.019Z,1.52
2022-09-12T05:39:00.423Z,1.52
2022-09-12T05:41:32.888Z,1.50
2022-09-12T05:44:02.711Z,1.30
2022-09-12T05:46:31.566Z,1.20
2022-09-12T05:49:04.532Z,1.58
2022-09-12T05:51:34.223Z,1.50
2022-09-12T05:54:05.699Z,1.50
2022-09-12T05:56:34.783Z,1.42
2022-09-12T05:59:03.918Z,1.70
2022-09-12T06:01:32.654Z,1.60
2022-09-12T06:04:01.326Z,1.63
2022-09-12T06:06:30.091Z,2.05
2022-09-12T06:08:59.105Z,1.50
2022-09-12T06:11:27.391Z,1.70
2022-09-12T06:13:55.098Z,1.65
2022-09-12T06:16:24.666Z,1.60
2022-09-12T06:18:56.187Z,1.50
2022-09-12T06:21:24.139Z,1.50
2022-09-12T06:23:51.007Z,1.40
2022-09-12T06:26:21.433Z,1.38
2022-09-12T06:28:48.180Z,1.52
2022-09-12T06:31:22.261Z,1.65
2022-09-12T06:33:51.817Z,1.88
2022-09-12T06:36:24.620Z,1.70
2022-09-12T06:39:08.206Z,1.90
2022-09-12T06:41:35.251Z,1.70
2022-09-12T06:44:02.522Z,1.98
2022-09-12T06:46:29.455Z,1.83
2022-09-12T06:48:57.057Z,1.55
2022-09-12T06:51:23.696Z,1.70
2022-09-12T06:53:50.386Z,1.60
2022-09-12T06:56:21.939Z,1.70
2022-09-12T06:58:50.410Z,1.80
2022-09-12T07:01:25.271Z,1.67
2022-09-12T07:03:53.805Z,1.52
2022-09-12T07:06:22.397Z,1.90
2022-09-12T07:08:48.987Z,1.88
2022-09-12T07:11:23.921Z,1.90
2022-09-12T07:13:53.680Z,1.90
2022-09-12T07:16:20.454Z,1.88
2022-09-12T07:18:54.714Z,1.60
2022-09-12T07:21:21.677Z,1.58
2022-09-12T07:23:49.193Z,1.60
2022-09-12T07:26:16.521Z,1.60
2022-09-12T07:28:44.138Z,1.60
2022-09-12T07:31:18.193Z,1.45
2022-09-12T07:33:44.905Z,1.40
2022-09-12T07:36:14.313Z,1.40
2022-09-12T07:38:41.954Z,1.50
2022-09-12T07:41:19.520Z,1.40
2022-09-12T07:43:46.460Z,1.60
2022-09-12T07:46:14.433Z,1.50
2022-09-12T07:48:41.105Z,1.40
2022-09-12T07:51:10.861Z,1.40
2022-09-12T07:53:40.121Z,1.40
2022-09-12T07:56:10.232Z,1.20
2022-09-12T07:58:38.238Z,1.20
2022-09-12T08:01:13.295Z,1.30
2022-09-12T08:03:41.521Z,1.40
2022-09-12T08:06:09.818Z,1.52
2022-09-12T08:08:37.538Z,1.50
2022-09-12T08:11:09.261Z,1.52
2022-09-12T08:13:37.433Z,1.48
2022-09-12T08:16:06.657Z,1.40
2022-09-12T08:18:35.647Z,1.43
2022-09-12T08:21:05.473Z,1.65
2022-09-12T08:23:33.587Z,1.63
2022-09-12T08:26:06.106Z,1.88
2022-09-12T08:28:35.440Z,1.85
2022-09-12T08:31:06.870Z,1.70
2022-09-12T08:33:34.062Z,1.55
2022-09-12T08:36:05.161Z,1.60
2022-09-12T08:38:32.531Z,1.52
2022-09-12T08:41:14.588Z,1.65
2022-09-12T08:43:59.446Z,1.60
2022-09-12T08:46:39.104Z,1.88
2022-09-12T08:49:12.284Z,2.25
2022-09-12T08:51:39.980Z,2.33
2022-09-12T08:54:19.580Z,2.10
2022-09-12T08:56:47.766Z,2.13
2022-09-12T08:59:15.274Z,1.90
2022-09-12T09:01:44.626Z,1.90
2022-09-12T09:04:14.206Z,1.73
2022-09-12T09:07:01.092Z,1.90
2022-09-12T09:10:00.777Z,1.73
2022-09-12T09:12:48.496Z,2.08
2022-09-12T09:15:21.361Z,2.10
2022-09-12T09:17:51.027Z,2.20
2022-09-12T09:20:29.949Z,2.22
2022-09-12T09:23:15.562Z,1.90
2022-09-12T09:26:07.757Z,2.05
2022-09-12T09:28:42.327Z,1.98
2022-09-12T09:31:17.104Z,1.88
2022-09-12T09:33:46.429Z,1.70
2022-09-12T09:36:50.367Z,2.00
2022-09-12T09:39:44.823Z,1.80
2022-09-12T09:42:42.565Z,1.80
2022-09-12T09:45:19.385Z,1.85
2022-09-12T09:48:10.826Z,1.55
2022-09-12T09:50:38.708Z,1.48
2022-09-12T09:53:11.386Z,1.60
2022-09-12T09:55:42.255Z,1.63
2022-09-12T09:58:08.758Z,1.55
2022-09-12T10:00:37.323Z,1.60
2022-09-12T10:03:10.178Z,1.70
2022-09-12T10:05:48.481Z,1.63
2022-09-12T10:08:27.480Z,1.50
2022-09-12T10:11:20.233Z,1.40
2022-09-12T10:13:59.970Z,1.83
2022-09-12T10:16:29.393Z,1.58
2022-09-12T10:19:01.539Z,1.50
2022-09-12T10:21:41.279Z,1.55
2022-09-12T10:24:21.147Z,1.60
2022-09-12T10:26:56.931Z,1.50
2022-09-12T10:29:33.284Z,1.45
2022-09-12T10:32:04.849Z,1.50
2022-09-12T10:34:37.248Z,1.67
2022-09-12T10:37:07.279Z,1.45
2022-09-12T10:39:37.695Z,1.40
2022-09-12T10:42:05.729Z,1.50
2022-09-12T10:44:34.961Z,1.60
2022-09-12T10:47:20.629Z,1.30
2022-09-12T10:49:47.188Z,1.10
2022-09-12T10:52:25.633Z,1.30
2022-09-12T10:54:52.270Z,1.45
2022-09-12T10:57:51.645Z,1.25
2022-09-12T11:00:20.479Z,1.40
2022-09-12T11:03:16.377Z,1.30
2022-09-12T11:05:56.473Z,1.20
2022-09-12T11:11:04.618Z,1.15
2022-09-12T11:13:55.683Z,1.20
2022-09-12T11:16:49.364Z,1.40
2022-09-12T11:19:40.886Z,1.40
2022-09-12T11:22:16.114Z,1.20
2022-09-12T11:25:12.212Z,1.30
2022-09-12T11:27:54.015Z,1.30
2022-09-12T11:30:20.571Z,1.30
2022-09-12T11:33:13.522Z,1.20
2022-09-12T11:35:55.300Z,1.13
2022-09-12T11:38:59.033Z,1.10
2022-09-12T11:41:33.703Z,1.00
2022-09-12T11:44:04.610Z,1.00
2022-09-12T11:46:39.495Z,1.10
2022-09-12T11:49:15.598Z,1.10
2022-09-12T11:51:49.750Z,1.40
2022-09-12T11:55:01.709Z,1.60
2022-09-12T11:57:48.422Z,1.42
2022-09-12T12:00:17.713Z,1.40
2022-09-12T12:03:13.867Z,1.42
2022-09-12T12:05:55.345Z,1.35
2022-09-12T12:08:24.063Z,1.10
2022-09-12T12:10:56.248Z,1.17
2022-09-12T12:13:38.651Z,1.00
2022-09-12T12:16:21.217Z,1.08
2022-09-12T12:19:19.984Z,1.00
2022-09-12T12:21:48.305Z,1.10
2022-09-12T12:24:17.689Z,1.17
2022-09-12T12:26:53.018Z,1.10
2022-09-12T12:29:19.461Z,0.90
2022-09-12T12:32:04.239Z,0.98
2022-09-12T12:35:00.980Z,0.93
2022-09-12T12:37:29.651Z,0.88
2022-09-12T12:40:07.649Z,1.00
2022-09-12T12:42:34.487Z,0.90
2022-09-12T12:45:06.774Z,0.80
2022-09-12T12:47:42.836Z,1.00
2022-09-12T12:50:24.563Z,0.90
2022-09-12T12:52:53.684Z,0.90
2022-09-12T12:55:23.813Z,0.95
2022-09-12T12:57:52.916Z,0.90
2022-09-12T13:00:25.388Z,0.80
2022-09-12T13:03:06.912Z,0.88
2022-09-12T13:05:51.779Z,1.00
2022-09-12T13:08:18.235Z,0.95
2022-09-12T13:10:57.990Z,0.90
2022-09-12T13:13:39.978Z,0.88
2022-09-12T13:16:07.774Z,0.80
2022-09-12T13:18:45.544Z,0.90
2022-09-12T13:21:15.161Z,0.93
2022-09-12T13:23:42.698Z,0.85
2022-09-12T13:26:20.773Z,0.80
2022-09-12T13:28:47.425Z,0.73
2022-09-12T13:31:24.486Z,0.80
2022-09-12T13:33:57.880Z,0.80
2022-09-12T13:36:44.081Z,1.02
2022-09-12T13:39:19.071Z,1.00
2022-09-12T13:41:56.197Z,1.13
2022-09-12T13:44:25.757Z,1.00
2022-09-12T13:46:53.145Z,0.98
2022-09-12T13:49:26.370Z,1.00
2022-09-12T13:51:59.913Z,0.90
2022-09-12T13:54:27.685Z,1.10
2022-09-12T13:56:54.451Z,1.20
2022-09-12T13:59:20.915Z,0.80
2022-09-12T14:01:48.764Z,1.00
2022-09-12T14:04:43.179Z,1.00
2022-09-12T14:07:20.856Z,1.13
2022-09-12T14:09:59.449Z,1.10
2022-09-12T14:12:31.029Z,1.00
2022-09-12T14:14:57.931Z,1.20
2022-09-12T14:17:54.771Z,1.13
2022-09-12T14:20:23.371Z,1.00
2022-09-12T14:22:53.366Z,1.00
2022-09-12T14:25:24.441Z,1.13
2022-09-12T14:27:55.737Z,1.10
2022-09-12T14:30:30.326Z,0.98
2022-09-12T14:33:05.839Z,1.00
2022-09-12T14:35:35.475Z,0.98
2022-09-12T14:38:23.695Z,1.30
2022-09-12T14:41:00.948Z,0.98
2022-09-12T14:43:33.299Z,1.10
2022-09-12T14:46:23.247Z,1.30
2022-09-12T14:48:57.744Z,1.30
2022-09-12T14:51:37.475Z,1.20
2022-09-12T14:54:04.068Z,1.08
2022-09-12T14:56:43.454Z,1.50
2022-09-12T14:59:34.961Z,1.17
2022-09-12T15:02:13.446Z,1.10
2022-09-12T15:04:42.048Z,1.08
2022-09-12T15:07:15.563Z,1.20
2022-09-12T15:09:47.112Z,1.10
2022-09-12T15:12:13.942Z,1.00
2022-09-12T15:14:40.435Z,0.95
2022-09-12T15:17:07.104Z,1.10
2022-09-12T15:19:33.581Z,1.30
2022-09-12T15:22:00.212Z,1.23
2022-09-12T15:24:26.811Z,1.15
2022-09-12T15:26:53.669Z,1.30
2022-09-12T15:29:20.146Z,1.00
2022-09-12T15:31:47.468Z,1.23
2022-09-12T15:34:14.022Z,1.20
2022-09-12T15:36:40.551Z,1.40
2022-09-12T15:39:07.147Z,1.30
2022-09-12T15:41:38.182Z,1.30
2022-09-12T15:44:12.503Z,1.27
2022-09-12T15:46:39.821Z,1.35
2022-09-12T15:49:07.169Z,1.20
2022-09-12T15:51:34.162Z,1.20
2022-09-12T15:54:02.223Z,1.30
2022-09-12T15:56:28.982Z,1.48
2022-09-12T15:58:59.243Z,1.40
2022-09-12T16:01:27.617Z,1.30
2022-09-12T16:03:54.255Z,1.60
2022-09-12T16:06:20.807Z,1.50
2022-09-12T16:08:47.558Z,1.40
2022-09-12T16:11:23.732Z,1.60
2022-09-12T16:13:52.570Z,1.75
2022-09-12T16:16:19.184Z,1.70
2022-09-12T16:18:45.782Z,1.70
2022-09-12T16:21:15.251Z,1.83
2022-09-12T16:23:43.549Z,1.73
2022-09-12T16:26:10.837Z,2.00
2022-09-12T16:28:37.785Z,1.63
2022-09-12T16:31:06.613Z,1.80
2022-09-12T16:33:34.087Z,1.60
2022-09-12T16:36:04.315Z,1.70
2022-09-12T16:38:31.389Z,1.70
2022-09-12T16:41:02.412Z,1.70
2022-09-12T16:43:30.594Z,1.70
2022-09-12T16:46:05.021Z,2.10
2022-09-12T16:48:32.098Z,2.00
2022-09-12T16:51:00.843Z,2.30
2022-09-12T16:53:31.245Z,2.35
2022-09-12T16:55:57.881Z,2.60
2022-09-12T16:58:24.561Z,2.40
2022-09-12T17:01:03.799Z,2.30
2022-09-12T17:03:31.387Z,2.70
2022-09-12T17:06:03.033Z,2.40
2022-09-12T17:08:29.860Z,2.70
2022-09-12T17:11:04.219Z,2.70
2022-09-12T17:13:53.043Z,2.65
2022-09-12T17:16:17.898Z,2.65
2022-09-12T17:18:45.039Z,2.67
2022-09-12T17:21:12.464Z,2.60
2022-09-12T17:23:40.152Z,2.53
2022-09-12T17:26:08.386Z,2.70
2022-09-12T17:28:35.393Z,2.22
2022-09-12T17:31:05.065Z,2.35
2022-09-12T17:33:32.201Z,2.25
2022-09-12T17:36:06.725Z,2.40
2022-09-12T17:38:38.053Z,2.75
2022-09-12T17:41:11.322Z,2.40
2022-09-12T17:43:38.235Z,2.40
2022-09-12T17:46:05.242Z,2.47
2022-09-12T17:48:32.476Z,2.33
2022-09-12T17:50:59.540Z,2.60
2022-09-12T17:53:26.108Z,2.30
2022-09-12T17:55:54.374Z,2.40
2022-09-12T17:58:21.050Z,2.75
2022-09-12T18:01:06.328Z,2.40
2022-09-12T18:03:35.131Z,2.80
2022-09-12T18:06:02.401Z,2.20
2022-09-12T18:08:30.169Z,2.40
2022-09-12T18:11:05.268Z,2.40
2022-09-12T18:13:33.343Z,2.25
2022-09-12T18:16:08.278Z,2.30
2022-09-12T18:18:39.323Z,2.17
2022-09-12T18:21:07.965Z,2.33
2022-09-12T18:23:35.672Z,2.03
2022-09-12T18:26:05.195Z,2.15
2022-09-12T18:28:36.841Z,2.10
2022-09-12T18:31:04.270Z,2.20
2022-09-12T18:36:13.300Z,1.88
2022-09-12T18:38:43.419Z,2.00
2022-09-12T18:41:23.838Z,1.90
2022-09-12T18:43:57.938Z,1.90
2022-09-12T18:46:25.821Z,1.80
2022-09-12T18:51:52.303Z,1.83
2022-09-12T18:54:21.611Z,1.92
2022-09-12T18:56:51.416Z,1.83
2022-09-12T18:59:20.518Z,2.00
2022-09-12T19:01:49.439Z,2.10
2022-09-12T19:04:16.689Z,2.00
2022-09-12T19:06:48.561Z,2.00
2022-09-12T19:09:18.791Z,1.90
2022-09-12T19:11:51.022Z,2.22
2022-09-12T19:14:22.667Z,1.92
2022-09-12T19:16:50.829Z,2.17
2022-09-12T19:19:17.697Z,2.22
2022-09-12T19:21:45.019Z,2.13
2022-09-12T19:24:13.671Z,2.42
2022-09-12T19:26:40.999Z,2.47
2022-09-12T19:29:08.568Z,2.80
2022-09-12T19:31:35.359Z,2.55
2022-09-12T19:34:04.451Z,2.60
2022-09-12T19:36:44.842Z,2.60
2022-09-12T19:39:13.495Z,2.78
2022-09-12T19:41:40.392Z,2.47
2022-09-12T19:44:06.918Z,2.70
2022-09-12T19:46:34.978Z,2.40
2022-09-12T19:49:01.571Z,2.45
2022-09-12T19:51:28.431Z,2.50
2022-09-12T19:53:55.390Z,2.63
2022-09-12T19:56:22.477Z,2.63
2022-09-12T19:58:55.701Z,2.60
2022-09-12T20:01:28.340Z,2.40
2022-09-12T20:03:56.822Z,2.60
2022-09-12T20:06:23.560Z,2.70
2022-09-12T20:08:50.131Z,2.70
2022-09-12T20:11:21.880Z,3.00
2022-09-12T20:13:54.998Z,2.78
2022-09-12T20:16:29.066Z,2.40
2022-09-12T20:19:11.899Z,2.42
2022-09-12T20:21:41.659Z,2.78
2022-09-12T20:24:13.832Z,2.97
2022-09-12T20:26:40.610Z,2.88
2022-09-12T20:29:08.095Z,3.00
2022-09-12T20:31:36.036Z,2.78
2022-09-12T20:34:03.234Z,2.92
2022-09-12T20:36:31.367Z,2.70
2022-09-12T20:39:01.081Z,2.70
2022-09-12T20:41:29.522Z,2.83
2022-09-12T20:43:57.234Z,2.80
2022-09-12T20:46:25.383Z,2.72
2022-09-12T20:48:52.340Z,2.70
2022-09-12T20:51:20.466Z,2.70
2022-09-12T20:53:47.848Z,2.72
2022-09-12T20:56:15.034Z,2.67
2022-09-12T20:58:44.050Z,2.88
2022-09-12T21:01:13.481Z,2.80
2022-09-12T21:03:41.879Z,3.00
2022-09-12T21:06:09.710Z,2.90
2022-09-12T21:08:37.024Z,2.88
2022-09-12T21:11:04.164Z,2.72
2022-09-12T21:13:30.704Z,2.83
2022-09-12T21:16:01.955Z,3.00
2022-09-12T21:18:29.072Z,2.80
2022-09-12T21:20:56.650Z,3.00
2022-09-12T21:23:25.350Z,3.15
2022-09-12T21:25:52.776Z,2.90
2022-09-12T21:28:20.249Z,2.67
2022-09-12T21:30:50.945Z,2.60
2022-09-12T21:33:19.253Z,2.80
2022-09-12T21:35:47.232Z,4.20
2022-09-12T21:38:18.204Z,3.00
2022-09-12T21:40:45.199Z,2.70
2022-09-12T21:43:13.182Z,3.10
2022-09-12T21:45:40.203Z,3.40
2022-09-12T21:48:06.733Z,3.20
2022-09-12T21:50:33.243Z,2.72
2022-09-12T21:52:59.886Z,2.92
2022-09-12T21:55:27.266Z,2.83
2022-09-12T21:57:57.201Z,2.70
2022-09-12T22:00:24.022Z,3.00
2022-09-12T22:02:50.616Z,2.95
2022-09-12T22:05:17.519Z,3.00
2022-09-12T22:07:44.105Z,2.90
2022-09-12T22:10:11.092Z,2.80
2022-09-12T22:12:37.658Z,3.00
2022-09-12T22:15:22.823Z,2.92
2022-09-12T22:17:51.606Z,2.70
2022-09-12T22:20:18.110Z,2.80
2022-09-12T22:23:03.259Z,2.90
2022-09-12T22:25:30.620Z,2.63
2022-09-12T22:27:57.116Z,2.90
2022-09-12T22:30:23.764Z,2.70
2022-09-12T22:32:51.407Z,2.88
2022-09-12T22:35:19.741Z,2.78
2022-09-12T22:37:47.786Z,3.10
2022-09-12T22:40:14.430Z,3.00
2022-09-12T22:42:41.004Z,2.88
2022-09-12T22:45:08.120Z,2.90
2022-09-12T22:47:34.583Z,3.00
2022-09-12T22:50:01.161Z,3.05
2022-09-12T22:52:27.643Z,2.80
2022-09-12T22:54:54.198Z,3.10
2022-09-12T22:57:20.737Z,2.90
2022-09-12T22:59:47.238Z,2.70
2022-09-12T23:02:13.774Z,2.70
2022-09-12T23:04:40.223Z,2.90
2022-09-12T23:07:06.802Z,2.85
2022-09-12T23:09:35.371Z,2.78
2022-09-12T23:12:02.625Z,2.70
2022-09-12T23:14:29.137Z,2.90
2022-09-12T23:16:55.647Z,2.50
2022-09-12T23:19:22.202Z,2.67
2022-09-12T23:21:48.689Z,2.70
2022-09-12T23:24:15.205Z,2.63
2022-09-12T23:26:41.679Z,3.00
2022-09-12T23:29:08.818Z,2.63
2022-09-12T23:31:35.511Z,2.65
2022-09-12T23:34:05.792Z,2.58
2022-09-12T23:36:32.913Z,2.80
2022-09-12T23:38:59.452Z,2.92
2022-09-12T23:41:26.030Z,2.80
2022-09-12T23:43:52.724Z,2.67
2022-09-12T23:46:20.904Z,2.85
2022-09-12T23:48:47.656Z,2.80
2022-09-12T23:51:14.838Z,2.55
2022-09-12T23:53:41.799Z,2.60
2022-09-12T23:56:08.620Z,3.05
2022-09-12T23:58:35.186Z,2.80
